createdAt,value
2018-03-15T00:01:58.637Z,5.73
2018-03-15T00:04:37.671Z,3.60
2018-03-15T00:07:05.997Z,4.10
2018-03-15T00:09:34.284Z,9.10
2018-03-15T00:12:02.542Z,5.90
2018-03-15T00:14:30.839Z,4.37
2018-03-15T00:16:59.118Z,4.70
2018-03-15T00:19:27.440Z,5.43
2018-03-15T00:21:55.716Z,4.47
2018-03-15T00:24:23.997Z,5.67
2018-03-15T00:26:52.294Z,3.90
2018-03-15T00:29:21.338Z,6.73
2018-03-15T00:31:49.709Z,13.23
2018-03-15T00:34:17.984Z,8.87
2018-03-15T00:36:46.242Z,4.53
2018-03-15T00:39:14.553Z,7.27
2018-03-15T00:41:42.830Z,9.20
2018-03-15T00:44:11.867Z,7.10
2018-03-15T00:46:40.118Z,7.20
2018-03-15T00:49:08.413Z,5.13
2018-03-15T00:51:36.711Z,7.27
2018-03-15T00:54:05.797Z,4.23
2018-03-15T00:56:34.104Z,4.40
2018-03-15T00:59:02.380Z,8.70
2018-03-15T01:01:30.702Z,9.00
2018-03-15T01:03:59.038Z,5.60
2018-03-15T01:06:27.306Z,5.30
2018-03-15T01:08:56.339Z,5.10
2018-03-15T01:11:24.631Z,7.03
2018-03-15T01:13:52.939Z,7.60
2018-03-15T01:16:21.246Z,7.70
2018-03-15T01:18:49.527Z,7.77
2018-03-15T01:21:17.801Z,9.30
2018-03-15T01:23:46.103Z,10.73
2018-03-15T01:26:14.394Z,8.27
2018-03-15T01:28:42.792Z,9.57
2018-03-15T01:31:11.055Z,8.23
2018-03-15T01:33:39.319Z,7.63
2018-03-15T01:36:07.648Z,8.27
2018-03-15T01:38:35.950Z,5.70
2018-03-15T01:41:04.231Z,6.80
2018-03-15T01:43:32.539Z,9.77
2018-03-15T01:46:00.805Z,9.23
2018-03-15T01:48:29.119Z,4.60
2018-03-15T01:50:57.381Z,3.73
2018-03-15T01:53:25.661Z,5.37
2018-03-15T01:55:53.972Z,4.97
2018-03-15T01:58:23.005Z,4.33
2018-03-15T02:00:52.040Z,11.47
2018-03-15T02:03:20.398Z,4.10
2018-03-15T02:05:48.633Z,4.97
2018-03-15T02:08:17.770Z,4.53
2018-03-15T02:10:46.055Z,4.70
2018-03-15T02:13:14.322Z,3.57
2018-03-15T02:15:42.633Z,4.37
2018-03-15T02:18:10.907Z,7.87
2018-03-15T02:20:39.178Z,4.50
2018-03-15T02:23:07.470Z,5.37
2018-03-15T02:25:35.735Z,5.03
2018-03-15T02:28:04.062Z,9.63
2018-03-15T02:30:32.327Z,8.40
2018-03-15T02:33:01.359Z,4.40
2018-03-15T02:35:29.675Z,8.13
2018-03-15T02:37:57.934Z,7.97
2018-03-15T02:40:27.016Z,6.77
2018-03-15T02:42:55.309Z,6.13
2018-03-15T02:45:23.578Z,6.67
2018-03-15T02:47:51.871Z,5.23
2018-03-15T02:50:20.129Z,9.30
2018-03-15T02:52:48.479Z,6.17
2018-03-15T02:55:16.757Z,3.80
2018-03-15T02:57:45.014Z,7.37
2018-03-15T03:00:14.084Z,7.00
2018-03-15T03:02:42.347Z,5.13
2018-03-15T03:05:10.652Z,8.67
2018-03-15T03:07:38.917Z,2.83
2018-03-15T03:10:07.199Z,3.67
2018-03-15T03:12:35.488Z,6.50
2018-03-15T03:15:03.766Z,2.97
2018-03-15T03:17:32.846Z,2.23
2018-03-15T03:20:01.124Z,2.90
2018-03-15T03:22:29.413Z,7.20
2018-03-15T03:24:57.715Z,4.50
2018-03-15T03:27:25.996Z,4.30
2018-03-15T03:29:55.093Z,8.57
2018-03-15T03:32:23.382Z,7.53
2018-03-15T03:34:52.413Z,2.63
2018-03-15T03:37:20.709Z,3.73
2018-03-15T03:39:48.979Z,4.27
2018-03-15T03:42:17.317Z,3.83
2018-03-15T03:44:45.600Z,6.53
2018-03-15T03:47:13.878Z,7.13
2018-03-15T03:49:42.181Z,7.40
2018-03-15T03:52:10.470Z,4.50
2018-03-15T03:54:38.818Z,7.40
2018-03-15T03:57:07.082Z,1.80
2018-03-15T03:59:35.501Z,3.43
2018-03-15T04:02:03.809Z,5.37
2018-03-15T04:04:32.838Z,3.30
2018-03-15T04:07:01.166Z,4.27
2018-03-15T04:09:29.426Z,2.80
2018-03-15T04:11:57.695Z,1.90
2018-03-15T04:14:25.974Z,7.93
2018-03-15T04:16:55.005Z,4.90
2018-03-15T04:19:23.337Z,9.53
2018-03-15T04:21:51.604Z,8.88
2018-03-15T04:24:19.870Z,4.87
2018-03-15T04:26:48.179Z,10.67
2018-03-15T04:29:16.456Z,7.10
2018-03-15T04:31:44.795Z,6.60
2018-03-15T04:34:13.839Z,6.97
2018-03-15T04:36:42.116Z,2.75
2018-03-15T04:39:10.398Z,5.03
2018-03-15T04:41:38.666Z,3.43
2018-03-15T04:44:06.982Z,7.57
2018-03-15T04:46:36.190Z,6.93
2018-03-15T04:49:04.462Z,8.63
2018-03-15T04:51:33.544Z,4.90
2018-03-15T04:54:01.815Z,5.00
2018-03-15T04:56:30.157Z,6.15
2018-03-15T04:58:58.426Z,7.00
2018-03-15T05:01:26.697Z,4.60
2018-03-15T05:03:55.006Z,4.23
2018-03-15T05:06:23.416Z,4.30
2018-03-15T05:08:52.378Z,6.67
2018-03-15T05:11:20.685Z,4.23
2018-03-15T05:13:49.011Z,4.77
2018-03-15T05:16:17.399Z,3.00
2018-03-15T05:18:45.658Z,3.47
2018-03-15T05:21:14.697Z,3.23
2018-03-15T05:23:43.304Z,4.53
2018-03-15T05:26:11.559Z,6.33
2018-03-15T05:28:39.915Z,9.53
2018-03-15T05:31:08.182Z,8.97
2018-03-15T05:33:36.464Z,11.35
2018-03-15T05:36:04.779Z,4.07
2018-03-15T05:38:33.072Z,4.43
2018-03-15T05:41:01.440Z,2.78
2018-03-15T05:43:29.725Z,5.90
2018-03-15T05:45:58.023Z,17.77
2018-03-15T05:48:27.106Z,11.57
2018-03-15T05:50:55.399Z,5.57
2018-03-15T05:53:24.827Z,5.97
2018-03-15T05:55:53.900Z,6.73
2018-03-15T05:58:22.230Z,4.10
2018-03-15T06:00:50.486Z,3.70
2018-03-15T06:03:18.839Z,8.60
2018-03-15T06:05:47.161Z,4.77
2018-03-15T06:08:15.422Z,6.10
2018-03-15T06:10:43.758Z,6.20
2018-03-15T06:13:12.032Z,3.60
2018-03-15T06:15:40.347Z,6.30
2018-03-15T06:18:08.626Z,2.43
2018-03-15T06:20:36.927Z,8.17
2018-03-15T06:23:05.230Z,2.53
2018-03-15T06:25:33.536Z,7.68
2018-03-15T06:28:02.625Z,10.70
2018-03-15T06:30:30.911Z,5.30
2018-03-15T06:32:59.186Z,4.60
2018-03-15T06:35:27.532Z,14.60
2018-03-15T06:37:55.802Z,6.50
2018-03-15T06:40:24.135Z,16.30
2018-03-15T06:42:53.188Z,7.33
2018-03-15T06:45:21.471Z,8.87
2018-03-15T06:47:49.793Z,7.73
2018-03-15T06:50:18.834Z,10.57
2018-03-15T06:52:47.105Z,15.40
2018-03-15T06:55:15.407Z,7.80
2018-03-15T06:57:43.698Z,7.47
2018-03-15T07:00:12.049Z,10.90
2018-03-15T07:02:40.387Z,18.80
2018-03-15T07:05:08.665Z,13.03
2018-03-15T07:07:37.015Z,15.57
2018-03-15T07:10:05.284Z,18.90
2018-03-15T07:12:34.460Z,9.20
2018-03-15T07:15:02.766Z,18.03
2018-03-15T07:17:31.046Z,8.10
2018-03-15T07:19:59.375Z,13.17
2018-03-15T07:22:27.659Z,16.47
2018-03-15T07:24:55.925Z,16.13
2018-03-15T07:27:24.213Z,11.00
2018-03-15T07:29:52.487Z,16.13
2018-03-15T07:32:20.806Z,14.50
2018-03-15T07:34:49.082Z,21.03
2018-03-15T07:37:17.350Z,20.20
2018-03-15T07:39:45.673Z,17.93
2018-03-15T07:42:13.952Z,14.67
2018-03-15T07:44:42.988Z,12.60
2018-03-15T07:47:11.335Z,16.10
2018-03-15T07:49:39.602Z,15.13
2018-03-15T07:52:07.889Z,11.30
2018-03-15T07:54:36.196Z,13.10
2018-03-15T07:57:04.484Z,11.33
2018-03-15T07:59:32.772Z,16.40
2018-03-15T08:02:01.164Z,19.47
2018-03-15T08:04:29.390Z,18.37
2018-03-15T08:06:57.658Z,13.30
2018-03-15T08:09:25.984Z,19.73
2018-03-15T08:11:54.276Z,17.10
2018-03-15T08:14:22.544Z,17.30
2018-03-15T08:16:50.854Z,19.10
2018-03-15T08:19:19.882Z,14.50
2018-03-15T08:21:48.210Z,14.40
2018-03-15T08:24:16.532Z,11.97
2018-03-15T08:26:44.758Z,15.43
2018-03-15T08:29:13.146Z,16.70
2018-03-15T08:31:41.417Z,14.70
2018-03-15T08:34:09.738Z,19.07
2018-03-15T08:36:38.020Z,15.37
2018-03-15T08:39:06.299Z,18.97
2018-03-15T08:41:34.604Z,15.17
2018-03-15T08:44:02.871Z,16.30
2018-03-15T08:46:31.188Z,11.17
2018-03-15T08:48:59.450Z,9.43
2018-03-15T08:51:27.754Z,17.63
2018-03-15T08:53:56.071Z,14.23
2018-03-15T08:56:24.348Z,19.07
2018-03-15T08:58:52.620Z,17.87
2018-03-15T09:01:20.926Z,20.80
2018-03-15T09:03:49.210Z,16.40
2018-03-15T09:06:17.722Z,17.00
2018-03-15T09:08:45.889Z,17.17
2018-03-15T09:11:14.104Z,17.03
2018-03-15T09:13:42.431Z,17.20
2018-03-15T09:16:10.707Z,13.57
2018-03-15T09:18:39.044Z,14.37
2018-03-15T09:21:07.366Z,15.40
2018-03-15T09:23:36.621Z,21.03
2018-03-15T09:26:04.946Z,17.17
2018-03-15T09:28:33.222Z,12.40
2018-03-15T09:31:01.506Z,26.83
2018-03-15T09:33:29.822Z,20.63
2018-03-15T09:35:58.109Z,14.20
2018-03-15T09:38:26.429Z,21.53
2018-03-15T09:40:54.699Z,18.50
2018-03-15T09:43:22.981Z,18.63
2018-03-15T09:45:51.293Z,16.93
2018-03-15T09:48:20.340Z,19.43
2018-03-15T09:50:48.669Z,13.30
2018-03-15T09:53:17.712Z,18.47
2018-03-15T09:55:46.027Z,12.40
2018-03-15T09:58:14.359Z,16.57
2018-03-15T10:00:42.641Z,10.13
2018-03-15T10:03:10.959Z,8.93
2018-03-15T10:05:39.242Z,9.83
2018-03-15T10:08:07.511Z,9.07
2018-03-15T10:10:35.858Z,8.40
2018-03-15T10:13:04.133Z,13.60
2018-03-15T10:15:32.417Z,7.40
2018-03-15T10:18:00.715Z,10.97
2018-03-15T10:20:28.999Z,10.53
2018-03-15T10:22:57.330Z,11.73
2018-03-15T10:25:26.394Z,11.17
2018-03-15T10:27:53.887Z,12.40
2018-03-15T10:30:22.205Z,12.83
2018-03-15T10:32:56.146Z,12.43
2018-03-15T10:35:28.084Z,12.67
2018-03-15T10:37:56.373Z,11.07
2018-03-15T10:40:24.651Z,10.97
2018-03-15T10:42:52.977Z,14.50
2018-03-15T10:45:21.277Z,13.33
2018-03-15T10:47:49.603Z,10.20
2018-03-15T10:50:18.661Z,14.20
2018-03-15T10:52:46.943Z,11.93
2018-03-15T10:55:15.264Z,12.50
2018-03-15T10:57:44.309Z,10.57
2018-03-15T11:00:12.639Z,14.53
2018-03-15T11:02:46.801Z,12.00
2018-03-15T11:05:20.714Z,9.70
2018-03-15T11:07:54.799Z,14.77
2018-03-15T11:10:23.136Z,14.20
2018-03-15T11:12:51.468Z,13.30
2018-03-15T11:15:20.514Z,10.00
2018-03-15T11:17:48.814Z,9.63
2018-03-15T11:20:17.885Z,12.80
2018-03-15T11:22:46.200Z,13.27
2018-03-15T11:25:14.490Z,12.43
2018-03-15T11:27:42.793Z,14.13
2018-03-15T11:30:11.304Z,11.83
2018-03-15T11:32:39.598Z,11.47
2018-03-15T11:35:08.685Z,11.03
2018-03-15T11:37:37.731Z,9.67
2018-03-15T11:40:06.023Z,9.80
2018-03-15T11:42:34.372Z,10.13
2018-03-15T11:45:02.655Z,10.87
2018-03-15T11:47:30.960Z,10.23
2018-03-15T11:49:59.270Z,7.00
2018-03-15T11:52:27.540Z,8.30
2018-03-15T11:54:55.876Z,6.10
2018-03-15T11:57:24.148Z,5.60
2018-03-15T11:59:52.413Z,7.47
2018-03-15T12:02:20.750Z,6.10
2018-03-15T12:04:49.043Z,8.97
2018-03-15T12:07:17.376Z,7.67
2018-03-15T12:09:45.700Z,8.80
2018-03-15T12:12:14.775Z,7.60
2018-03-15T12:14:43.131Z,6.60
2018-03-15T12:17:11.436Z,6.87
2018-03-15T12:19:39.827Z,8.73
2018-03-15T12:22:08.162Z,6.87
2018-03-15T12:24:36.434Z,6.63
2018-03-15T12:27:04.702Z,6.17
2018-03-15T12:29:33.012Z,5.70
2018-03-15T12:32:01.287Z,5.27
2018-03-15T12:34:29.622Z,5.47
2018-03-15T12:36:58.710Z,6.43
2018-03-15T12:39:26.977Z,5.20
2018-03-15T12:41:55.314Z,5.57
2018-03-15T12:44:24.384Z,6.40
2018-03-15T12:46:52.688Z,4.77
2018-03-15T12:49:21.000Z,5.43
2018-03-15T12:51:49.256Z,8.70
2018-03-15T12:54:17.602Z,5.00
2018-03-15T12:56:45.871Z,5.50
2018-03-15T12:59:14.369Z,9.07
2018-03-15T13:01:42.679Z,4.50
2018-03-15T13:04:10.960Z,6.23
2018-03-15T13:06:39.275Z,4.73
2018-03-15T13:09:07.606Z,5.33
2018-03-15T13:11:35.905Z,5.17
2018-03-15T13:14:04.983Z,5.60
2018-03-15T13:16:33.291Z,6.20
2018-03-15T13:19:01.575Z,5.73
2018-03-15T13:21:29.912Z,5.23
2018-03-15T13:23:58.376Z,6.80
2018-03-15T13:26:26.684Z,4.33
2018-03-15T13:28:54.983Z,5.50
2018-03-15T13:31:23.270Z,5.13
2018-03-15T13:33:51.591Z,5.13
2018-03-15T13:36:19.863Z,5.97
2018-03-15T13:38:48.129Z,5.00
2018-03-15T13:41:16.556Z,5.10
2018-03-15T13:43:44.821Z,4.50
2018-03-15T13:46:13.086Z,6.07
2018-03-15T13:48:41.424Z,4.57
2018-03-15T13:51:10.458Z,4.83
2018-03-15T13:53:39.610Z,6.53
2018-03-15T13:56:08.690Z,8.87
2018-03-15T13:58:37.285Z,5.57
2018-03-15T14:01:05.591Z,5.17
2018-03-15T14:03:33.896Z,5.47
2018-03-15T14:06:02.176Z,4.67
2018-03-15T14:08:30.486Z,5.13
2018-03-15T14:10:58.868Z,4.33
2018-03-15T14:13:27.125Z,4.27
2018-03-15T14:15:55.466Z,5.40
2018-03-15T14:18:24.532Z,5.20
2018-03-15T14:20:52.855Z,5.90
2018-03-15T14:23:21.141Z,4.57
2018-03-15T14:25:49.440Z,4.93
2018-03-15T14:28:17.754Z,6.30
2018-03-15T14:30:46.806Z,5.83
2018-03-15T14:33:15.131Z,5.60
2018-03-15T14:35:44.192Z,3.70
2018-03-15T14:38:12.465Z,5.43
2018-03-15T14:40:40.791Z,4.90
2018-03-15T14:43:09.857Z,4.13
2018-03-15T14:45:38.188Z,4.60
2018-03-15T14:48:06.459Z,4.17
2018-03-15T14:50:34.786Z,5.10
2018-03-15T14:53:03.116Z,5.43
2018-03-15T14:55:31.377Z,4.30
2018-03-15T14:58:00.485Z,6.07
2018-03-15T15:00:28.787Z,8.03
2018-03-15T15:02:57.050Z,6.03
2018-03-15T15:05:25.318Z,7.33
2018-03-15T15:07:53.615Z,5.37
2018-03-15T15:10:21.900Z,4.83
2018-03-15T15:12:50.288Z,5.50
2018-03-15T15:15:19.288Z,4.70
2018-03-15T15:17:47.562Z,6.00
2018-03-15T15:20:15.898Z,5.33
2018-03-15T15:22:44.204Z,5.13
2018-03-15T15:25:12.464Z,5.93
2018-03-15T15:27:40.785Z,6.80
2018-03-15T15:30:09.057Z,4.37
2018-03-15T15:32:37.386Z,15.87
2018-03-15T15:35:05.702Z,19.10
2018-03-15T15:37:34.094Z,21.70
2018-03-15T15:40:02.434Z,24.27
2018-03-15T15:42:30.722Z,33.00
2018-03-15T15:44:58.997Z,24.50
2018-03-15T15:47:27.304Z,26.93
2018-03-15T15:49:55.590Z,26.10
2018-03-15T15:52:23.914Z,29.63
2018-03-15T15:54:52.236Z,26.77
2018-03-15T15:57:20.702Z,22.87
2018-03-15T15:59:49.106Z,24.57
2018-03-15T16:02:17.385Z,28.37
2018-03-15T16:04:45.758Z,31.50
2018-03-15T16:07:14.077Z,26.83
2018-03-15T16:09:42.362Z,25.67
2018-03-15T16:12:11.459Z,28.27
2018-03-15T16:14:40.510Z,29.57
2018-03-15T16:17:08.855Z,24.93
2018-03-15T16:19:37.174Z,32.77
2018-03-15T16:22:06.276Z,25.10
2018-03-15T16:24:34.833Z,29.70
2018-03-15T16:27:03.242Z,34.97
2018-03-15T16:29:31.910Z,24.67
2018-03-15T16:32:00.223Z,26.83
2018-03-15T16:34:28.758Z,26.53
2018-03-15T16:36:57.145Z,26.47
2018-03-15T16:39:25.506Z,37.47
2018-03-15T16:41:53.799Z,32.87
2018-03-15T16:44:22.123Z,31.27
2018-03-15T16:46:51.191Z,24.40
2018-03-15T16:49:19.522Z,27.30
2018-03-15T16:51:48.573Z,25.73
2018-03-15T16:54:16.863Z,31.27
2018-03-15T16:56:45.269Z,34.93
2018-03-15T16:59:13.552Z,28.17
2018-03-15T17:01:42.852Z,32.83
2018-03-15T17:04:11.938Z,31.80
2018-03-15T17:06:40.381Z,27.43
2018-03-15T17:09:09.285Z,31.83
2018-03-15T17:11:38.132Z,35.30
2018-03-15T17:14:06.477Z,26.37
2018-03-15T17:16:34.829Z,29.93
2018-03-15T17:19:03.118Z,31.03
2018-03-15T17:21:31.437Z,26.40
2018-03-15T17:24:00.506Z,29.87
2018-03-15T17:26:28.831Z,28.67
2018-03-15T17:28:57.164Z,31.43
2018-03-15T17:31:25.450Z,42.77
2018-03-15T17:33:53.727Z,40.10
2018-03-15T17:36:22.872Z,36.70
2018-03-15T17:38:51.159Z,34.50
2018-03-15T17:41:19.508Z,34.33
2018-03-15T17:43:47.810Z,34.30
2018-03-15T17:46:16.102Z,34.77
2018-03-15T17:48:44.560Z,42.10
2018-03-15T17:51:13.463Z,34.23
2018-03-15T17:53:41.894Z,40.83
2018-03-15T17:56:10.966Z,31.00
2018-03-15T17:58:39.275Z,36.53
2018-03-15T18:01:08.348Z,39.80
2018-03-15T18:03:38.331Z,34.90
2018-03-15T18:06:06.821Z,41.43
2018-03-15T18:08:35.115Z,43.63
2018-03-15T18:11:03.424Z,36.23
2018-03-15T18:13:31.726Z,38.87
2018-03-15T18:16:00.031Z,41.13
2018-03-15T18:18:28.378Z,41.00
2018-03-15T18:20:56.682Z,43.70
2018-03-15T18:23:24.967Z,42.43
2018-03-15T18:25:53.354Z,37.93
2018-03-15T18:28:21.684Z,42.03
2018-03-15T18:30:49.971Z,39.40
2018-03-15T18:33:18.326Z,43.13
2018-03-15T18:35:46.651Z,40.20
2018-03-15T18:38:14.927Z,39.80
2018-03-15T18:40:43.254Z,39.60
2018-03-15T18:43:11.594Z,42.07
2018-03-15T18:45:43.005Z,39.80
2018-03-15T18:48:11.325Z,37.73
2018-03-15T18:50:41.130Z,38.30
2018-03-15T18:53:10.369Z,41.50
2018-03-15T18:55:38.644Z,46.90
2018-03-15T18:58:06.947Z,47.63
2018-03-15T19:00:35.418Z,46.03
2018-03-15T19:03:03.878Z,38.80
2018-03-15T19:05:32.283Z,45.33
2018-03-15T19:08:00.835Z,47.13
2018-03-15T19:10:29.125Z,37.23
2018-03-15T19:12:57.453Z,39.70
2018-03-15T19:15:25.780Z,41.67
2018-03-15T19:17:54.076Z,35.13
2018-03-15T19:20:22.405Z,46.63
2018-03-15T19:22:50.734Z,39.83
2018-03-15T19:25:19.416Z,36.83
2018-03-15T19:27:47.848Z,37.03
2018-03-15T19:30:16.171Z,30.77
2018-03-15T19:32:44.614Z,32.67
2018-03-15T19:35:16.438Z,37.63
2018-03-15T19:37:45.763Z,38.23
2018-03-15T19:40:14.107Z,39.47
2018-03-15T19:42:42.483Z,37.87
2018-03-15T19:45:10.845Z,39.07
2018-03-15T19:47:39.174Z,32.67
2018-03-15T19:50:08.275Z,35.43
2018-03-15T19:52:36.695Z,40.73
2018-03-15T19:55:05.978Z,37.73
2018-03-15T19:57:36.188Z,29.03
2018-03-15T20:00:04.494Z,47.80
2018-03-15T20:02:33.169Z,33.43
2018-03-15T20:05:01.523Z,34.00
2018-03-15T20:07:29.818Z,42.93
2018-03-15T20:09:58.281Z,30.57
2018-03-15T20:12:26.601Z,43.07
2018-03-15T20:14:54.992Z,38.58
2018-03-15T20:17:24.133Z,38.60
2018-03-15T20:19:52.415Z,30.90
2018-03-15T20:22:26.378Z,47.40
2018-03-15T20:24:54.766Z,31.67
2018-03-15T20:27:28.839Z,41.20
2018-03-15T20:29:57.134Z,37.30
2018-03-15T20:32:31.091Z,37.63
2018-03-15T20:35:01.011Z,37.17
2018-03-15T20:37:29.368Z,31.63
2018-03-15T20:40:03.490Z,43.53
2018-03-15T20:42:31.831Z,46.70
2018-03-15T20:45:01.037Z,33.00
2018-03-15T20:47:35.737Z,42.50
2018-03-15T20:50:04.488Z,35.07
2018-03-15T20:52:32.946Z,38.07
2018-03-15T20:55:01.349Z,42.80
2018-03-15T20:57:29.677Z,41.03
2018-03-15T20:59:58.008Z,38.00
2018-03-15T21:02:26.295Z,29.73
2018-03-15T21:04:54.634Z,25.43
2018-03-15T21:07:22.952Z,41.50
2018-03-15T21:09:51.386Z,36.77
2018-03-15T21:12:19.812Z,39.83
2018-03-15T21:14:48.618Z,45.40
2018-03-15T21:17:17.113Z,32.50
2018-03-15T21:19:46.183Z,28.83
2018-03-15T21:22:15.332Z,40.40
2018-03-15T21:24:43.727Z,34.53
2018-03-15T21:27:12.137Z,32.23
2018-03-15T21:29:41.128Z,44.00
2018-03-15T21:32:09.504Z,46.10
2018-03-15T21:34:37.890Z,39.67
2018-03-15T21:37:06.253Z,43.33
2018-03-15T21:39:34.532Z,38.80
2018-03-15T21:42:02.824Z,37.00
2018-03-15T21:44:31.150Z,23.53
2018-03-15T21:46:59.433Z,37.30
2018-03-15T21:49:27.727Z,47.47
2018-03-15T21:51:56.051Z,38.30
2018-03-15T21:54:25.233Z,41.10
2018-03-15T21:56:53.821Z,34.50
2018-03-15T21:59:22.321Z,40.97
2018-03-15T22:01:51.564Z,41.23
2018-03-15T22:04:20.091Z,44.40
2018-03-15T22:06:52.926Z,53.17
2018-03-15T22:09:21.208Z,31.10
2018-03-15T22:11:49.734Z,38.57
2018-03-15T22:14:18.064Z,33.73
2018-03-15T22:16:46.368Z,40.20
2018-03-15T22:19:15.074Z,51.07
2018-03-15T22:21:43.475Z,50.97
2018-03-15T22:24:12.562Z,38.10
2018-03-15T22:26:40.838Z,43.10
2018-03-15T22:29:09.894Z,50.23
2018-03-15T22:31:40.126Z,50.03
2018-03-15T22:34:08.398Z,49.97
2018-03-15T22:36:36.680Z,39.47
2018-03-15T22:39:05.041Z,48.93
2018-03-15T22:41:33.310Z,45.50
2018-03-15T22:44:02.767Z,37.30
2018-03-15T22:46:31.090Z,49.53
2018-03-15T22:48:59.399Z,39.20
2018-03-15T22:51:31.662Z,45.43
2018-03-15T22:54:00.023Z,29.93
2018-03-15T22:56:28.294Z,56.00
2018-03-15T22:58:56.627Z,39.80
2018-03-15T23:01:24.910Z,32.73
2018-03-15T23:03:53.180Z,51.57
2018-03-15T23:06:21.552Z,40.70
2018-03-15T23:08:49.834Z,40.80
2018-03-15T23:11:18.109Z,45.63
2018-03-15T23:13:46.473Z,60.13
2018-03-15T23:16:14.755Z,44.30
2018-03-15T23:18:43.051Z,43.50
2018-03-15T23:21:11.367Z,43.97
2018-03-15T23:23:39.665Z,45.93
2018-03-15T23:26:08.774Z,53.53
2018-03-15T23:28:38.010Z,40.37
2018-03-15T23:31:06.276Z,44.80
2018-03-15T23:33:34.594Z,48.93
2018-03-15T23:36:03.641Z,41.30
2018-03-15T23:38:31.953Z,37.93
2018-03-15T23:41:01.003Z,44.20
2018-03-15T23:43:29.289Z,43.63
2018-03-15T23:45:57.582Z,43.20
2018-03-15T23:48:25.864Z,40.60
2018-03-15T23:50:54.174Z,47.97
2018-03-15T23:53:23.230Z,51.30
2018-03-15T23:55:51.505Z,47.13
2018-03-15T23:58:19.905Z,59.70
